createdAt,value
2022-11-18T00:01:21.911Z,96264.75
2022-11-18T00:02:53.477Z,96259.72
2022-11-18T00:04:25.065Z,96268.16
2022-11-18T00:05:57.847Z,96260.53
2022-11-18T00:07:29.466Z,96256.69
2022-11-18T00:09:01.270Z,96262.69
2022-11-18T00:10:32.844Z,96264.94
2022-11-18T00:12:23.363Z,96268.97
2022-11-18T00:14:13.496Z,96266.75
2022-11-18T00:15:45.026Z,96274.56
2022-11-18T00:17:16.539Z,96280.41
2022-11-18T00:18:48.081Z,96283.41
2022-11-18T00:20:19.666Z,96280.03
2022-11-18T00:21:51.576Z,96284.56
2022-11-18T00:23:23.238Z,96289.78
2022-11-18T00:24:54.853Z,96292.56
2022-11-18T00:26:26.462Z,96291.16
2022-11-18T00:27:58.030Z,96285.56
2022-11-18T00:29:30.901Z,96293.13
2022-11-18T00:31:08.766Z,96289.53
2022-11-18T00:32:40.400Z,96287.19
2022-11-18T00:34:13.767Z,96295.19
2022-11-18T00:35:54.139Z,96296.53
2022-11-18T00:37:25.767Z,96293.94
2022-11-18T00:38:57.363Z,96284.72
2022-11-18T00:40:29.109Z,96299.75
2022-11-18T00:42:19.170Z,96288.88
2022-11-18T00:43:50.725Z,96286.47
2022-11-18T00:45:23.276Z,96287.69
2022-11-18T00:46:54.899Z,96281.66
2022-11-18T00:48:27.225Z,96288.50
2022-11-18T00:49:58.817Z,96286.50
2022-11-18T00:51:30.413Z,96285.69
2022-11-18T00:53:01.971Z,96291.28
2022-11-18T00:54:33.633Z,96285.63
2022-11-18T00:56:05.977Z,96287.16
2022-11-18T00:57:37.524Z,96292.38
2022-11-18T00:59:09.134Z,96284.56
2022-11-18T01:00:42.359Z,96290.00
2022-11-18T01:02:13.945Z,96291.38
2022-11-18T01:03:46.945Z,96288.38
2022-11-18T01:05:18.556Z,96291.22
2022-11-18T01:06:50.175Z,96294.81
2022-11-18T01:08:22.471Z,96285.63
2022-11-18T01:09:54.190Z,96294.09
2022-11-18T01:11:44.616Z,96286.47
2022-11-18T01:13:19.434Z,96288.47
2022-11-18T01:14:51.075Z,96285.19
2022-11-18T01:16:25.951Z,96287.59
2022-11-18T01:17:57.571Z,96289.44
2022-11-18T01:19:29.253Z,96288.94
2022-11-18T01:21:02.587Z,96288.31
2022-11-18T01:22:34.210Z,96293.53
2022-11-18T01:24:06.251Z,96294.47
2022-11-18T01:25:39.044Z,96293.06
2022-11-18T01:27:10.552Z,96299.88
2022-11-18T01:28:42.661Z,96288.88
2022-11-18T01:30:16.839Z,96295.66
2022-11-18T01:32:16.831Z,96293.00
2022-11-18T01:33:40.475Z,96298.00
2022-11-18T01:35:12.640Z,96291.78
2022-11-18T01:36:44.274Z,96296.59
2022-11-18T01:38:16.033Z,96303.28
2022-11-18T01:39:47.610Z,96309.47
2022-11-18T01:41:21.827Z,96304.94
2022-11-18T01:42:53.393Z,96312.81
2022-11-18T01:44:52.743Z,96310.97
2022-11-18T01:46:26.868Z,96311.94
2022-11-18T01:48:10.170Z,96316.13
2022-11-18T01:49:41.799Z,96321.75
2022-11-18T01:51:16.798Z,96319.31
2022-11-18T01:52:51.861Z,96323.69
2022-11-18T01:54:35.765Z,96327.91
2022-11-18T01:56:26.181Z,96333.28
2022-11-18T01:58:05.692Z,96324.97
2022-11-18T01:59:41.349Z,96329.97
2022-11-18T02:01:13.225Z,96326.50
2022-11-18T02:02:45.508Z,96330.28
2022-11-18T02:04:17.368Z,96330.66
2022-11-18T02:05:50.672Z,96334.06
2022-11-18T02:07:22.773Z,96330.06
2022-11-18T02:08:56.109Z,96332.66
2022-11-18T02:10:27.683Z,96326.00
2022-11-18T02:11:59.412Z,96327.41
2022-11-18T02:13:32.452Z,96328.22
2022-11-18T02:15:04.575Z,96317.97
2022-11-18T02:16:44.231Z,96320.78
2022-11-18T02:18:44.626Z,96323.03
2022-11-18T02:20:28.217Z,96314.19
2022-11-18T02:22:30.963Z,96318.63
2022-11-18T02:24:27.396Z,96320.00
2022-11-18T02:26:27.121Z,96322.59
2022-11-18T02:28:27.740Z,96321.47
2022-11-18T02:30:08.757Z,96327.59
2022-11-18T02:32:00.307Z,96331.41
2022-11-18T02:34:21.810Z,96327.75
2022-11-18T02:36:05.765Z,96328.81
2022-11-18T02:37:49.594Z,96334.59
2022-11-18T02:39:29.928Z,96332.97
2022-11-18T02:41:06.784Z,96337.16
2022-11-18T02:42:40.582Z,96335.38
2022-11-18T02:44:16.353Z,96332.13
2022-11-18T02:45:51.080Z,96337.75
2022-11-18T02:47:24.759Z,96334.06
2022-11-18T02:48:57.231Z,96332.44
2022-11-18T02:50:30.733Z,96334.00
2022-11-18T02:52:03.660Z,96328.38
2022-11-18T02:53:38.672Z,96330.72
2022-11-18T02:55:13.689Z,96332.28
2022-11-18T02:56:47.193Z,96338.31
2022-11-18T02:58:21.192Z,96334.78
2022-11-18T02:59:52.875Z,96336.22
2022-11-18T03:01:28.585Z,96342.22
2022-11-18T03:03:00.475Z,96345.59
2022-11-18T03:04:34.384Z,96342.38
2022-11-18T03:06:09.577Z,96349.56
2022-11-18T03:07:44.282Z,96349.38
2022-11-18T03:09:31.219Z,96349.94
2022-11-18T03:11:16.092Z,96351.75
2022-11-18T03:13:13.748Z,96347.13
2022-11-18T03:14:54.249Z,96354.41
2022-11-18T03:16:33.481Z,96358.63
2022-11-18T03:18:44.138Z,96357.88
2022-11-18T03:20:24.117Z,96359.81
2022-11-18T03:22:01.826Z,96365.94
2022-11-18T03:23:40.497Z,96370.59
2022-11-18T03:25:17.515Z,96372.78
2022-11-18T03:26:55.292Z,96372.44
2022-11-18T03:28:38.314Z,96382.97
2022-11-18T03:30:15.738Z,96384.75
2022-11-18T03:31:52.006Z,96390.03
2022-11-18T03:33:31.431Z,96393.69
2022-11-18T03:35:11.340Z,96395.91
2022-11-18T03:36:51.629Z,96395.84
2022-11-18T03:38:30.447Z,96394.00
2022-11-18T03:40:11.945Z,96411.13
2022-11-18T03:41:49.423Z,96408.69
2022-11-18T03:43:26.484Z,96411.00
2022-11-18T03:45:05.120Z,96409.69
2022-11-18T03:46:44.678Z,96409.91
2022-11-18T03:48:18.698Z,96403.81
2022-11-18T03:49:55.632Z,96400.13
2022-11-18T03:51:36.790Z,96405.16
2022-11-18T03:53:11.033Z,96409.75
2022-11-18T03:54:47.111Z,96403.72
2022-11-18T03:56:24.325Z,96411.81
2022-11-18T03:58:38.361Z,96423.41
2022-11-18T04:00:11.352Z,96429.91
2022-11-18T04:01:47.264Z,96431.69
2022-11-18T04:03:19.224Z,96434.41
2022-11-18T04:04:53.203Z,96436.22
2022-11-18T04:06:36.467Z,96434.41
2022-11-18T04:08:16.628Z,96442.31
2022-11-18T04:09:57.784Z,96446.66
2022-11-18T04:11:57.699Z,96439.75
2022-11-18T04:13:33.217Z,96449.19
2022-11-18T04:15:05.243Z,96449.19
2022-11-18T04:16:44.027Z,96453.16
2022-11-18T04:18:15.655Z,96455.69
2022-11-18T04:19:47.695Z,96449.56
2022-11-18T04:21:19.281Z,96452.56
2022-11-18T04:22:50.921Z,96456.56
2022-11-18T04:24:22.712Z,96457.38
2022-11-18T04:25:54.245Z,96465.19
2022-11-18T04:27:25.776Z,96471.22
2022-11-18T04:28:57.311Z,96475.63
2022-11-18T04:30:29.488Z,96457.84
2022-11-18T04:32:02.097Z,96475.41
2022-11-18T04:33:33.635Z,96481.47
2022-11-18T04:35:05.544Z,96484.03
2022-11-18T04:36:40.790Z,96490.84
2022-11-18T04:38:13.816Z,96479.84
2022-11-18T04:39:47.105Z,96481.59
2022-11-18T04:41:18.736Z,96481.78
2022-11-18T04:42:50.266Z,96483.50
2022-11-18T04:44:30.311Z,96477.69
2022-11-18T04:46:01.908Z,96480.28
2022-11-18T04:47:33.502Z,96482.91
2022-11-18T04:49:05.058Z,96484.69
2022-11-18T04:50:36.611Z,96484.06
2022-11-18T04:52:08.313Z,96486.22
2022-11-18T04:53:39.908Z,96482.72
2022-11-18T04:55:11.504Z,96485.06
2022-11-18T04:56:48.716Z,96488.88
2022-11-18T04:58:20.808Z,96487.19
2022-11-18T04:59:52.389Z,96480.41
2022-11-18T05:01:24.042Z,96489.38
2022-11-18T05:02:55.750Z,96485.09
2022-11-18T05:04:30.738Z,96488.50
2022-11-18T05:06:02.465Z,96484.72
2022-11-18T05:07:34.135Z,96497.47
2022-11-18T05:09:05.903Z,96490.56
2022-11-18T05:10:38.805Z,96496.78
2022-11-18T05:12:33.743Z,96495.25
2022-11-18T05:14:05.248Z,96497.41
2022-11-18T05:15:36.862Z,96496.97
2022-11-18T05:17:09.527Z,96502.34
2022-11-18T05:18:41.145Z,96504.16
2022-11-18T05:20:13.271Z,96501.91
2022-11-18T05:21:45.082Z,96509.09
2022-11-18T05:23:16.645Z,96506.50
2022-11-18T05:24:48.342Z,96512.44
2022-11-18T05:26:20.018Z,96509.53
2022-11-18T05:27:51.859Z,96506.50
2022-11-18T05:29:23.720Z,96513.50
2022-11-18T05:30:55.331Z,96512.69
2022-11-18T05:32:26.957Z,96516.03
2022-11-18T05:33:58.639Z,96522.84
2022-11-18T05:35:30.266Z,96510.25
2022-11-18T05:37:01.823Z,96524.34
2022-11-18T05:38:34.573Z,96515.72
2022-11-18T05:40:06.947Z,96518.53
2022-11-18T05:41:56.890Z,96517.72
2022-11-18T05:43:30.025Z,96521.47
2022-11-18T05:45:01.930Z,96520.41
2022-11-18T05:46:33.984Z,96525.34
2022-11-18T05:48:07.598Z,96527.88
2022-11-18T05:49:39.235Z,96527.88
2022-11-18T05:51:10.858Z,96536.31
2022-11-18T05:52:42.480Z,96537.94
2022-11-18T05:54:16.028Z,96537.94
2022-11-18T05:56:12.642Z,96544.47
2022-11-18T05:57:44.259Z,96543.88
2022-11-18T05:59:16.759Z,96546.47
2022-11-18T06:00:52.815Z,96541.78
2022-11-18T06:02:24.781Z,96549.00
2022-11-18T06:03:57.432Z,96548.44
2022-11-18T06:05:29.051Z,96544.22
2022-11-18T06:07:10.992Z,96549.81
2022-11-18T06:08:50.407Z,96552.03
2022-11-18T06:10:27.960Z,96555.28
2022-11-18T06:12:04.248Z,96555.72
2022-11-18T06:13:50.005Z,96560.94
2022-11-18T06:15:28.108Z,96564.34
2022-11-18T06:17:04.586Z,96566.78
2022-11-18T06:18:36.194Z,96567.41
2022-11-18T06:20:08.610Z,96565.16
2022-11-18T06:21:40.252Z,96565.53
2022-11-18T06:23:12.707Z,96572.06
2022-11-18T06:24:45.143Z,96570.81
2022-11-18T06:26:17.372Z,96568.56
2022-11-18T06:27:52.073Z,96576.84
2022-11-18T06:29:27.687Z,96571.00
2022-11-18T06:30:59.530Z,96574.41
2022-11-18T06:32:31.192Z,96580.06
2022-11-18T06:34:02.804Z,96578.00
2022-11-18T06:35:34.786Z,96581.44
2022-11-18T06:37:17.103Z,96578.47
2022-11-18T06:38:48.561Z,96579.88
2022-11-18T06:40:20.266Z,96573.06
2022-11-18T06:41:54.901Z,96581.78
2022-11-18T06:43:41.875Z,96580.25
2022-11-18T06:45:13.945Z,96578.81
2022-11-18T06:46:57.831Z,96583.78
2022-11-18T06:48:31.435Z,96590.84
2022-11-18T06:50:03.548Z,96590.22
2022-11-18T06:51:35.355Z,96591.13
2022-11-18T06:53:07.077Z,96597.50
2022-11-18T06:54:38.714Z,96596.06
2022-11-18T06:56:13.784Z,96595.00
2022-11-18T06:57:45.624Z,96603.81
2022-11-18T06:59:23.663Z,96604.50
2022-11-18T07:00:55.756Z,96602.81
2022-11-18T07:02:27.627Z,96609.91
2022-11-18T07:04:00.380Z,96612.88
2022-11-18T07:05:31.970Z,96600.72
2022-11-18T07:07:03.694Z,96611.81
2022-11-18T07:08:37.286Z,96607.91
2022-11-18T07:10:09.316Z,96612.06
2022-11-18T07:11:41.454Z,96611.81
2022-11-18T07:13:13.075Z,96607.91
2022-11-18T07:14:44.866Z,96614.56
2022-11-18T07:16:20.784Z,96622.06
2022-11-18T07:17:53.093Z,96624.47
2022-11-18T07:19:24.788Z,96619.44
2022-11-18T07:20:56.535Z,96621.84
2022-11-18T07:22:28.482Z,96629.50
2022-11-18T07:24:00.224Z,96630.13
2022-11-18T07:25:31.968Z,96631.03
2022-11-18T07:27:03.786Z,96636.97
2022-11-18T07:28:36.041Z,96639.19
2022-11-18T07:30:08.158Z,96637.22
2022-11-18T07:31:40.088Z,96645.22
2022-11-18T07:33:11.735Z,96643.06
2022-11-18T07:34:45.080Z,96645.78
2022-11-18T07:36:20.708Z,96637.78
2022-11-18T07:37:52.277Z,96642.53
2022-11-18T07:39:23.938Z,96644.22
2022-11-18T07:40:56.336Z,96653.31
2022-11-18T07:42:28.244Z,96653.31
2022-11-18T07:44:01.984Z,96655.56
2022-11-18T07:45:33.920Z,96647.09
2022-11-18T07:47:05.922Z,96655.81
2022-11-18T07:48:37.727Z,96664.44
2022-11-18T07:50:09.545Z,96661.66
2022-11-18T07:51:41.334Z,96667.50
2022-11-18T07:53:12.991Z,96664.28
2022-11-18T07:54:44.607Z,96671.75
2022-11-18T07:56:18.115Z,96670.84
2022-11-18T07:57:49.782Z,96671.19
2022-11-18T07:59:21.507Z,96672.81
2022-11-18T08:00:53.289Z,96679.41
2022-11-18T08:02:24.877Z,96687.84
2022-11-18T08:03:57.618Z,96683.44
2022-11-18T08:05:29.228Z,96695.66
2022-11-18T08:07:00.949Z,96700.72
2022-11-18T08:08:32.727Z,96696.66
2022-11-18T08:10:04.628Z,96699.25
2022-11-18T08:11:36.889Z,96704.13
2022-11-18T08:13:08.581Z,96702.16
2022-11-18T08:14:40.153Z,96704.94
2022-11-18T08:16:17.049Z,96708.34
2022-11-18T08:17:48.899Z,96708.72
2022-11-18T08:19:20.903Z,96704.03
2022-11-18T08:20:52.637Z,96717.25
2022-11-18T08:22:24.260Z,96714.47
2022-11-18T08:23:57.701Z,96720.41
2022-11-18T08:25:29.427Z,96716.34
2022-11-18T08:27:01.111Z,96713.75
2022-11-18T08:28:33.759Z,96723.63
2022-11-18T08:30:05.989Z,96722.94
2022-11-18T08:31:37.826Z,96722.66
2022-11-18T08:33:09.641Z,96731.56
2022-11-18T08:34:41.389Z,96721.47
2022-11-18T08:36:16.553Z,96731.56
2022-11-18T08:37:48.238Z,96727.59
2022-11-18T08:39:20.015Z,96724.44
2022-11-18T08:40:51.899Z,96721.81
2022-11-18T08:42:26.850Z,96719.84
2022-11-18T08:44:02.866Z,96721.91
2022-11-18T08:45:34.578Z,96718.47
2022-11-18T08:47:06.256Z,96721.75
2022-11-18T08:48:38.039Z,96726.56
2022-11-18T08:50:11.640Z,96726.44
2022-11-18T08:51:43.320Z,96728.66
2022-11-18T08:53:15.926Z,96733.38
2022-11-18T08:54:47.582Z,96731.84
2022-11-18T08:56:21.544Z,96730.94
2022-11-18T08:57:53.145Z,96740.25
2022-11-18T08:59:24.976Z,96738.84
2022-11-18T09:00:56.760Z,96740.63
2022-11-18T09:02:28.348Z,96735.75
2022-11-18T09:04:00.010Z,96741.91
2022-11-18T09:05:31.795Z,96738.31
2022-11-18T09:07:03.516Z,96739.50
2022-11-18T09:08:35.199Z,96735.88
2022-11-18T09:10:07.260Z,96742.25
2022-11-18T09:11:40.157Z,96738.19
2022-11-18T09:13:40.382Z,96740.75
2022-11-18T09:16:55.657Z,96745.72
2022-11-18T09:18:27.610Z,96745.41
2022-11-18T09:19:59.295Z,96747.94
2022-11-18T09:21:30.900Z,96749.63
2022-11-18T09:23:02.567Z,96750.81
2022-11-18T09:24:34.636Z,96747.81
2022-11-18T09:26:12.020Z,96746.59
2022-11-18T09:27:43.662Z,96758.53
2022-11-18T09:29:15.591Z,96749.28
2022-11-18T09:30:47.192Z,96749.63
2022-11-18T09:32:19.924Z,96750.38
2022-11-18T09:33:51.777Z,96760.81
2022-11-18T09:35:23.469Z,96754.44
2022-11-18T09:36:56.695Z,96758.91
2022-11-18T09:38:32.225Z,96754.03
2022-11-18T09:40:04.139Z,96757.16
2022-11-18T09:42:26.656Z,96759.50
2022-11-18T09:44:38.260Z,96753.69
2022-11-18T09:46:40.581Z,96763.97
2022-11-18T09:48:41.921Z,96764.72
2022-11-18T09:50:47.339Z,96762.97
2022-11-18T09:52:12.958Z,96762.81
2022-11-18T09:53:45.218Z,96768.88
2022-11-18T09:55:18.868Z,96773.84
2022-11-18T09:56:53.442Z,96773.34
2022-11-18T09:58:33.036Z,96772.72
2022-11-18T10:00:15.205Z,96773.78
2022-11-18T10:01:48.546Z,96778.28
2022-11-18T10:03:27.780Z,96774.22
2022-11-18T10:05:15.183Z,96780.63
2022-11-18T10:06:49.029Z,96775.53
2022-11-18T10:08:45.079Z,96792.44
2022-11-18T10:10:22.755Z,96780.13
2022-11-18T10:12:09.856Z,96788.41
2022-11-18T10:14:19.697Z,96787.31
2022-11-18T10:16:00.500Z,96784.69
2022-11-18T10:17:44.704Z,96792.28
2022-11-18T10:19:29.207Z,96792.38
2022-11-18T10:21:13.113Z,96786.28
2022-11-18T10:22:52.703Z,96793.75
2022-11-18T10:24:27.023Z,96788.38
2022-11-18T10:25:58.754Z,96792.09
2022-11-18T10:27:42.485Z,96790.38
2022-11-18T10:29:14.231Z,96797.81
2022-11-18T10:30:45.890Z,96801.19
2022-11-18T10:32:20.588Z,96802.78
2022-11-18T10:33:59.847Z,96796.50
2022-11-18T10:35:36.960Z,96799.94
2022-11-18T10:37:34.484Z,96790.31
2022-11-18T10:39:16.614Z,96797.63
2022-11-18T10:40:58.071Z,96796.16
2022-11-18T10:42:37.733Z,96792.00
2022-11-18T10:44:27.835Z,96791.69
2022-11-18T10:46:16.715Z,96789.50
2022-11-18T10:48:14.748Z,96799.13
2022-11-18T10:49:46.556Z,96795.44
2022-11-18T10:51:23.787Z,96793.88
2022-11-18T10:52:55.572Z,96794.28
2022-11-18T10:54:27.204Z,96794.94
2022-11-18T10:56:08.171Z,96787.91
2022-11-18T10:57:43.561Z,96803.97
2022-11-18T10:59:26.532Z,96788.81
2022-11-18T11:01:08.421Z,96804.84
2022-11-18T11:02:41.622Z,96802.19
2022-11-18T11:04:24.570Z,96805.34
2022-11-18T11:06:15.771Z,96803.06
2022-11-18T11:08:28.868Z,96803.75
2022-11-18T11:10:06.132Z,96805.09
2022-11-18T11:11:43.695Z,96805.34
2022-11-18T11:13:17.259Z,96801.13
2022-11-18T11:14:52.315Z,96800.72
2022-11-18T11:16:26.596Z,96803.44
2022-11-18T11:18:21.564Z,96803.44
2022-11-18T11:20:22.468Z,96806.91
2022-11-18T11:21:54.194Z,96806.44
2022-11-18T11:23:26.812Z,96809.16
2022-11-18T11:24:58.719Z,96793.09
2022-11-18T11:28:43.013Z,96799.13
2022-11-18T11:30:24.359Z,96804.38
2022-11-18T11:32:34.938Z,96801.06
2022-11-18T11:34:25.133Z,96802.53
2022-11-18T11:36:21.162Z,96813.78
2022-11-18T11:37:58.467Z,96806.97
2022-11-18T11:39:38.879Z,96817.63
2022-11-18T11:41:22.633Z,96821.44
2022-11-18T11:43:15.298Z,96821.84
2022-11-18T11:45:19.437Z,96821.41
2022-11-18T11:47:14.081Z,96823.66
2022-11-18T11:49:13.117Z,96823.53
2022-11-18T11:51:04.068Z,96823.56
2022-11-18T11:53:14.744Z,96827.03
2022-11-18T11:55:04.983Z,96829.56
2022-11-18T11:56:48.893Z,96833.59
2022-11-18T11:58:39.476Z,96827.75
2022-11-18T12:00:20.066Z,96828.06
2022-11-18T12:02:35.181Z,96828.59
2022-11-18T12:04:25.483Z,96831.81
2022-11-18T12:05:57.151Z,96830.34
2022-11-18T12:07:34.026Z,96832.25
2022-11-18T12:09:21.357Z,96835.09
2022-11-18T12:11:14.655Z,96833.88
2022-11-18T12:13:08.775Z,96835.81
2022-11-18T12:14:53.917Z,96835.81
2022-11-18T12:16:31.100Z,96841.81
2022-11-18T12:18:09.039Z,96834.97
2022-11-18T12:19:40.747Z,96836.53
2022-11-18T12:21:46.431Z,96843.72
2022-11-18T12:23:21.122Z,96839.75
2022-11-18T12:24:52.803Z,96841.59
2022-11-18T12:26:35.359Z,96836.94
2022-11-18T12:28:08.436Z,96836.13
2022-11-18T12:29:49.032Z,96837.41
2022-11-18T12:31:20.687Z,96835.88
2022-11-18T12:32:56.669Z,96834.69
2022-11-18T12:34:31.305Z,96837.31
2022-11-18T12:36:03.225Z,96826.31
2022-11-18T12:37:42.927Z,96825.94
2022-11-18T12:39:23.585Z,96833.91
2022-11-18T12:40:55.201Z,96834.97
2022-11-18T12:43:04.698Z,96841.94
2022-11-18T12:44:37.496Z,96827.41
2022-11-18T12:46:09.244Z,96828.81
2022-11-18T12:47:40.771Z,96839.44
2022-11-18T12:49:27.083Z,96836.16
2022-11-18T12:51:19.179Z,96841.44
2022-11-18T12:52:52.614Z,96842.88
2022-11-18T12:54:49.797Z,96837.00
2022-11-18T12:56:37.093Z,96839.13
2022-11-18T12:58:23.351Z,96841.09
2022-11-18T12:59:55.522Z,96840.31
2022-11-18T13:01:35.179Z,96835.28
2022-11-18T13:03:06.881Z,96835.28
2022-11-18T13:04:45.009Z,96831.91
2022-11-18T13:06:23.560Z,96840.59
2022-11-18T13:08:15.754Z,96832.94
2022-11-18T13:09:47.937Z,96838.34
2022-11-18T13:11:38.257Z,96845.28
2022-11-18T13:13:28.979Z,96852.59
2022-11-18T13:15:20.659Z,96850.34
2022-11-18T13:17:10.833Z,96844.31
2022-11-18T13:18:52.744Z,96852.28
2022-11-18T13:20:37.707Z,96858.31
2022-11-18T13:22:36.751Z,96854.91
2022-11-18T13:24:12.881Z,96860.38
2022-11-18T13:25:46.057Z,96856.16
2022-11-18T13:27:31.204Z,96856.19
2022-11-18T13:29:18.254Z,96861.66
2022-11-18T13:31:05.333Z,96858.81
2022-11-18T13:32:44.338Z,96862.47
2022-11-18T13:34:27.311Z,96867.28
2022-11-18T13:35:58.996Z,96864.66
2022-11-18T13:37:32.763Z,96863.81
2022-11-18T13:39:06.738Z,96857.09
2022-11-18T13:41:04.279Z,96868.34
2022-11-18T13:42:44.819Z,96857.84
2022-11-18T13:44:24.188Z,96862.81
2022-11-18T13:45:56.002Z,96862.81
2022-11-18T13:47:37.332Z,96860.63
2022-11-18T13:49:16.404Z,96870.19
2022-11-18T13:50:52.759Z,96866.63
2022-11-18T13:52:40.273Z,96874.47
2022-11-18T13:54:19.951Z,96864.59
2022-11-18T13:55:56.081Z,96873.78
2022-11-18T13:57:29.619Z,96874.91
2022-11-18T13:59:16.829Z,96878.34
2022-11-18T14:01:01.082Z,96885.56
2022-11-18T14:02:39.144Z,96876.47
2022-11-18T14:04:23.784Z,96880.72
2022-11-18T14:05:56.830Z,96875.09
2022-11-18T14:07:34.185Z,96873.69
2022-11-18T14:09:24.305Z,96874.66
2022-11-18T14:10:56.550Z,96874.22
2022-11-18T14:12:32.588Z,96872.59
2022-11-18T14:14:04.793Z,96878.19
2022-11-18T14:15:43.337Z,96883.41
2022-11-18T14:17:22.953Z,96871.16
2022-11-18T14:18:54.758Z,96880.63
2022-11-18T14:20:29.054Z,96883.66
2022-11-18T14:22:10.009Z,96885.91
2022-11-18T14:23:44.548Z,96880.91
2022-11-18T14:25:36.047Z,96889.44
2022-11-18T14:27:36.479Z,96888.81
2022-11-18T14:29:23.317Z,96890.78
2022-11-18T14:31:04.001Z,96891.94
2022-11-18T14:32:36.043Z,96895.34
2022-11-18T14:34:25.937Z,96893.38
2022-11-18T14:35:59.320Z,96895.06
2022-11-18T14:37:30.991Z,96900.25
2022-11-18T14:39:26.425Z,96903.97
2022-11-18T14:41:03.287Z,96894.63
2022-11-18T14:42:34.862Z,96897.78
2022-11-18T14:44:08.016Z,96895.75
2022-11-18T14:45:40.386Z,96899.53
2022-11-18T14:47:26.447Z,96896.94
2022-11-18T14:48:58.767Z,96905.16
2022-11-18T14:50:30.613Z,96904.09
2022-11-18T14:52:04.513Z,96910.00
2022-11-18T14:53:36.181Z,96907.31
2022-11-18T14:55:08.445Z,96911.41
2022-11-18T14:56:40.433Z,96908.06
2022-11-18T14:58:14.331Z,96918.34
2022-11-18T14:59:46.162Z,96911.31
2022-11-18T15:01:18.269Z,96923.94
2022-11-18T15:02:50.063Z,96918.59
2022-11-18T15:04:22.270Z,96920.31
2022-11-18T15:05:54.029Z,96923.03
2022-11-18T15:07:25.586Z,96929.25
2022-11-18T15:08:57.357Z,96932.78
2022-11-18T15:10:29.311Z,96932.31
2022-11-18T15:12:00.842Z,96935.28
2022-11-18T15:13:32.454Z,96934.94
2022-11-18T15:15:04.470Z,96925.84
2022-11-18T15:16:36.578Z,96936.81
2022-11-18T15:18:09.246Z,96934.94
2022-11-18T15:19:41.631Z,96936.28
2022-11-18T15:21:13.862Z,96937.78
2022-11-18T15:22:45.545Z,96935.34
2022-11-18T15:24:17.400Z,96935.25
2022-11-18T15:25:49.520Z,96943.03
2022-11-18T15:27:21.404Z,96940.59
2022-11-18T15:28:55.102Z,96942.31
2022-11-18T15:30:26.792Z,96941.94
2022-11-18T15:31:58.414Z,96939.25
2022-11-18T15:33:30.078Z,96940.72
2022-11-18T15:35:02.098Z,96941.22
2022-11-18T15:36:33.736Z,96939.97
2022-11-18T15:38:05.525Z,96936.31
2022-11-18T15:39:37.112Z,96943.81
2022-11-18T15:41:16.566Z,96951.38
2022-11-18T15:42:52.005Z,96953.97
2022-11-18T15:44:24.694Z,96950.91
2022-11-18T15:45:58.147Z,96958.16
2022-11-18T15:47:29.795Z,96953.97
2022-11-18T15:49:02.148Z,96961.34
2022-11-18T15:50:33.883Z,96953.50
2022-11-18T15:52:08.599Z,96953.25
2022-11-18T15:53:40.874Z,96956.84
2022-11-18T15:55:12.520Z,96958.53
2022-11-18T15:56:44.169Z,96952.59
2022-11-18T15:58:17.353Z,96961.34
2022-11-18T15:59:49.109Z,96965.00
2022-11-18T16:01:21.536Z,96958.16
2022-11-18T16:02:53.174Z,96962.47
2022-11-18T16:04:24.818Z,96964.38
2022-11-18T16:05:56.421Z,96969.31
2022-11-18T16:07:28.116Z,96967.41
2022-11-18T16:09:00.677Z,96973.03
2022-11-18T16:10:51.117Z,96973.91
2022-11-18T16:12:41.325Z,96977.53
2022-11-18T16:14:14.194Z,96976.97
2022-11-18T16:15:48.350Z,96973.72
2022-11-18T16:17:20.289Z,96978.06
2022-11-18T16:18:55.455Z,96975.06
2022-11-18T16:20:27.925Z,96985.09
2022-11-18T16:21:59.600Z,96985.00
2022-11-18T16:23:31.386Z,96986.41
2022-11-18T16:25:03.562Z,96989.03
2022-11-18T16:26:37.189Z,96997.16
2022-11-18T16:28:08.821Z,96993.06
2022-11-18T16:29:40.420Z,96992.91
2022-11-18T16:31:31.025Z,96994.75
2022-11-18T16:33:02.788Z,96997.16
2022-11-18T16:34:34.508Z,96998.56
2022-11-18T16:36:06.317Z,97003.25
2022-11-18T16:37:38.073Z,97002.75
2022-11-18T16:39:16.126Z,97005.38
2022-11-18T16:40:58.155Z,97006.69
2022-11-18T16:42:29.728Z,97005.63
2022-11-18T16:44:05.377Z,97009.53
2022-11-18T16:45:36.995Z,97016.25
2022-11-18T16:47:14.309Z,97015.00
2022-11-18T16:48:46.675Z,97014.50
2022-11-18T16:50:18.912Z,97013.19
2022-11-18T16:51:52.507Z,97019.84
2022-11-18T16:53:24.185Z,97019.56
2022-11-18T16:54:55.784Z,97019.97
2022-11-18T16:56:33.030Z,97023.31
2022-11-18T16:58:04.681Z,97017.34
2022-11-18T16:59:36.432Z,97020.41
2022-11-18T17:01:23.450Z,97022.22
2022-11-18T17:02:57.981Z,97022.41
2022-11-18T17:04:30.783Z,97017.38
2022-11-18T17:06:02.546Z,97020.34
2022-11-18T17:07:38.244Z,97027.53
2022-11-18T17:09:16.795Z,97027.34
2022-11-18T17:10:49.182Z,97025.53
2022-11-18T17:12:21.100Z,97031.47
2022-11-18T17:13:57.771Z,97030.66
2022-11-18T17:15:30.002Z,97036.41
2022-11-18T17:17:01.701Z,97036.25
2022-11-18T17:18:33.489Z,97037.06
2022-11-18T17:20:05.658Z,97039.09
2022-11-18T17:21:37.355Z,97044.31
2022-11-18T17:23:09.001Z,97049.25
2022-11-18T17:24:40.695Z,97047.59
2022-11-18T17:26:14.310Z,97050.97
2022-11-18T17:27:46.013Z,97054.22
2022-11-18T17:29:18.371Z,97053.56
2022-11-18T17:30:50.575Z,97058.31
2022-11-18T17:32:22.383Z,97062.34
2022-11-18T17:33:55.778Z,97057.63
2022-11-18T17:35:27.499Z,97059.72
2022-11-18T17:37:04.916Z,97064.78
2022-11-18T17:38:43.685Z,97066.25
2022-11-18T17:40:15.597Z,97063.66
2022-11-18T17:42:05.884Z,97062.84
2022-11-18T17:43:37.535Z,97064.78
2022-11-18T17:45:09.362Z,97064.13
2022-11-18T17:46:41.502Z,97061.88
2022-11-18T17:48:13.094Z,97066.25
2022-11-18T17:49:44.805Z,97062.94
2022-11-18T17:51:20.137Z,97061.84
2022-11-18T17:52:51.954Z,97065.88
2022-11-18T17:54:23.831Z,97061.31
2022-11-18T17:55:59.545Z,97063.75
2022-11-18T17:57:34.100Z,97065.88
2022-11-18T17:59:05.909Z,97063.31
2022-11-18T18:00:38.657Z,97069.19
2022-11-18T18:02:12.456Z,97064.97
2022-11-18T18:03:44.181Z,97065.75
2022-11-18T18:05:16.199Z,97072.44
2022-11-18T18:06:51.088Z,97071.19
2022-11-18T18:08:22.712Z,97072.63
2022-11-18T18:09:54.319Z,97078.66
2022-11-18T18:11:26.822Z,97079.84
2022-11-18T18:13:16.827Z,97083.06
2022-11-18T18:14:48.396Z,97081.28
2022-11-18T18:16:19.986Z,97086.84
2022-11-18T18:17:51.653Z,97091.72
2022-11-18T18:19:24.511Z,97084.41
2022-11-18T18:20:56.592Z,97085.72
2022-11-18T18:22:28.224Z,97090.59
2022-11-18T18:24:00.238Z,97090.44
2022-11-18T18:25:33.752Z,97091.41
2022-11-18T18:27:05.341Z,97084.28
2022-11-18T18:28:37.508Z,97085.09
2022-11-18T18:30:09.778Z,97088.66
2022-11-18T18:31:41.517Z,97092.25
2022-11-18T18:33:13.309Z,97097.63
2022-11-18T18:34:44.947Z,97094.19
2022-11-18T18:36:18.798Z,97100.38
2022-11-18T18:37:50.455Z,97093.72
2022-11-18T18:39:23.331Z,97103.66
2022-11-18T18:40:54.948Z,97092.09
2022-11-18T18:42:26.888Z,97095.69
2022-11-18T18:43:58.611Z,97094.41
2022-11-18T18:45:48.589Z,97097.00
2022-11-18T18:47:20.190Z,97103.34
2022-11-18T18:48:52.088Z,97105.66
2022-11-18T18:50:29.369Z,97104.19
2022-11-18T18:52:01.523Z,97101.56
2022-11-18T18:53:33.368Z,97097.34
2022-11-18T18:55:05.363Z,97096.88
2022-11-18T18:56:38.597Z,97105.50
2022-11-18T18:58:10.303Z,97105.66
2022-11-18T18:59:42.036Z,97106.47